sensor_id;sensor_type;location;lat;lon;timestamp;temperature;humidity
47382;DHT22;33128;51.580;5.170;2024-03-06T00:00:07;5.50;99.90
47382;DHT22;33128;51.580;5.170;2024-03-06T00:02:35;5.50;99.90
47382;DHT22;33128;51.580;5.170;2024-03-06T00:05:01;5.50;99.90
47382;DHT22;33128;51.580;5.170;2024-03-06T00:07:26;5.40;99.90
47382;DHT22;33128;51.580;5.170;2024-03-06T00:09:52;5.40;99.90
47382;DHT22;33128;51.580;5.170;2024-03-06T00:12:18;5.30;99.90
47382;DHT22;33128;51.580;5.170;2024-03-06T00:14:44;5.30;99.90
47382;DHT22;33128;51.580;5.170;2024-03-06T00:17:09;5.30;99.90
47382;DHT22;33128;51.580;5.170;2024-03-06T00:19:35;5.40;99.90
47382;DHT22;33128;51.580;5.170;2024-03-06T00:22:01;5.30;99.90
47382;DHT22;33128;51.580;5.170;2024-03-06T00:24:26;5.20;99.90
47382;DHT22;33128;51.580;5.170;2024-03-06T00:26:52;5.20;99.90
47382;DHT22;33128;51.580;5.170;2024-03-06T00:29:18;5.20;99.90
47382;DHT22;33128;51.580;5.170;2024-03-06T00:31:46;5.20;99.90
47382;DHT22;33128;51.580;5.170;2024-03-06T00:34:12;5.20;99.90
47382;DHT22;33128;51.580;5.170;2024-03-06T00:36:44;5.10;99.90
47382;DHT22;33128;51.580;5.170;2024-03-06T00:39:10;5.10;99.90
47382;DHT22;33128;51.580;5.170;2024-03-06T00:41:36;5.10;99.90
47382;DHT22;33128;51.580;5.170;2024-03-06T00:44:02;5.00;99.90
47382;DHT22;33128;51.580;5.170;2024-03-06T00:46:31;5.10;99.90
47382;DHT22;33128;51.580;5.170;2024-03-06T00:48:59;5.10;99.90
47382;DHT22;33128;51.580;5.170;2024-03-06T00:51:31;4.80;99.90
47382;DHT22;33128;51.580;5.170;2024-03-06T00:53:57;4.80;99.90
47382;DHT22;33128;51.580;5.170;2024-03-06T00:56:22;4.80;99.90
47382;DHT22;33128;51.580;5.170;2024-03-06T00:58:48;4.80;99.90
47382;DHT22;33128;51.580;5.170;2024-03-06T01:01:15;4.80;99.90
47382;DHT22;33128;51.580;5.170;2024-03-06T01:03:41;4.90;99.90
47382;DHT22;33128;51.580;5.170;2024-03-06T01:06:06;5.00;99.90
47382;DHT22;33128;51.580;5.170;2024-03-06T01:08:32;5.00;99.90
47382;DHT22;33128;51.580;5.170;2024-03-06T01:11:01;5.00;99.90
47382;DHT22;33128;51.580;5.170;2024-03-06T01:13:27;5.00;99.90
47382;DHT22;33128;51.580;5.170;2024-03-06T01:15:52;5.00;99.90
47382;DHT22;33128;51.580;5.170;2024-03-06T01:18:18;5.00;99.90
47382;DHT22;33128;51.580;5.170;2024-03-06T01:20:43;5.10;99.90
47382;DHT22;33128;51.580;5.170;2024-03-06T01:23:09;5.00;99.90
47382;DHT22;33128;51.580;5.170;2024-03-06T01:25:35;4.90;99.90
47382;DHT22;33128;51.580;5.170;2024-03-06T01:28:00;4.90;99.90
47382;DHT22;33128;51.580;5.170;2024-03-06T01:30:26;4.80;99.90
47382;DHT22;33128;51.580;5.170;2024-03-06T01:32:51;4.80;99.90
47382;DHT22;33128;51.580;5.170;2024-03-06T01:35:17;4.80;99.90
47382;DHT22;33128;51.580;5.170;2024-03-06T01:37:46;4.90;99.90
47382;DHT22;33128;51.580;5.170;2024-03-06T01:40:11;4.80;99.90
47382;DHT22;33128;51.580;5.170;2024-03-06T01:42:37;4.80;99.90
47382;DHT22;33128;51.580;5.170;2024-03-06T01:45:04;4.80;99.90
47382;DHT22;33128;51.580;5.170;2024-03-06T01:47:30;4.80;99.90
47382;DHT22;33128;51.580;5.170;2024-03-06T01:49:56;4.80;99.90
47382;DHT22;33128;51.580;5.170;2024-03-06T01:52:22;4.90;99.90
47382;DHT22;33128;51.580;5.170;2024-03-06T01:54:48;4.90;99.90
47382;DHT22;33128;51.580;5.170;2024-03-06T01:57:15;4.90;99.90
47382;DHT22;33128;51.580;5.170;2024-03-06T01:59:44;4.80;99.90
47382;DHT22;33128;51.580;5.170;2024-03-06T02:02:10;4.90;99.90
47382;DHT22;33128;51.580;5.170;2024-03-06T02:04:41;4.90;99.90
47382;DHT22;33128;51.580;5.170;2024-03-06T02:07:10;4.90;99.90
47382;DHT22;33128;51.580;5.170;2024-03-06T02:09:36;5.00;99.90
47382;DHT22;33128;51.580;5.170;2024-03-06T02:12:02;5.00;99.90
47382;DHT22;33128;51.580;5.170;2024-03-06T02:14:29;5.00;99.90
47382;DHT22;33128;51.580;5.170;2024-03-06T02:16:54;4.90;99.90
47382;DHT22;33128;51.580;5.170;2024-03-06T02:19:20;4.90;99.90
47382;DHT22;33128;51.580;5.170;2024-03-06T02:21:46;4.80;99.90
47382;DHT22;33128;51.580;5.170;2024-03-06T02:24:11;4.80;99.90
47382;DHT22;33128;51.580;5.170;2024-03-06T02:29:11;4.80;99.90
47382;DHT22;33128;51.580;5.170;2024-03-06T02:31:40;4.80;99.90
47382;DHT22;33128;51.580;5.170;2024-03-06T02:34:09;4.80;99.90
47382;DHT22;33128;51.580;5.170;2024-03-06T02:36:34;4.80;99.90
47382;DHT22;33128;51.580;5.170;2024-03-06T02:39:01;4.90;99.90
47382;DHT22;33128;51.580;5.170;2024-03-06T02:41:27;4.80;99.90
47382;DHT22;33128;51.580;5.170;2024-03-06T02:43:52;4.70;99.90
47382;DHT22;33128;51.580;5.170;2024-03-06T02:46:18;4.70;99.90
47382;DHT22;33128;51.580;5.170;2024-03-06T02:48:43;4.70;99.90
47382;DHT22;33128;51.580;5.170;2024-03-06T02:51:10;4.80;99.90
47382;DHT22;33128;51.580;5.170;2024-03-06T02:53:35;4.70;99.90
47382;DHT22;33128;51.580;5.170;2024-03-06T02:56:01;4.70;99.90
47382;DHT22;33128;51.580;5.170;2024-03-06T02:58:26;4.70;99.90
47382;DHT22;33128;51.580;5.170;2024-03-06T03:00:55;4.70;99.90
47382;DHT22;33128;51.580;5.170;2024-03-06T03:03:21;4.60;99.90
47382;DHT22;33128;51.580;5.170;2024-03-06T03:05:47;4.60;99.90
47382;DHT22;33128;51.580;5.170;2024-03-06T03:08:12;4.70;99.90
47382;DHT22;33128;51.580;5.170;2024-03-06T03:10:38;4.70;99.90
47382;DHT22;33128;51.580;5.170;2024-03-06T03:13:04;4.70;99.90
47382;DHT22;33128;51.580;5.170;2024-03-06T03:15:30;4.70;99.90
47382;DHT22;33128;51.580;5.170;2024-03-06T03:17:56;4.70;99.90
47382;DHT22;33128;51.580;5.170;2024-03-06T03:20:24;4.70;99.90
47382;DHT22;33128;51.580;5.170;2024-03-06T03:22:50;4.70;99.90
47382;DHT22;33128;51.580;5.170;2024-03-06T03:25:15;4.70;99.90
47382;DHT22;33128;51.580;5.170;2024-03-06T03:27:41;4.70;99.90
47382;DHT22;33128;51.580;5.170;2024-03-06T03:30:13;4.60;99.90
47382;DHT22;33128;51.580;5.170;2024-03-06T03:32:41;4.70;99.90
47382;DHT22;33128;51.580;5.170;2024-03-06T03:35:07;4.60;99.90
47382;DHT22;33128;51.580;5.170;2024-03-06T03:37:34;4.60;99.90
47382;DHT22;33128;51.580;5.170;2024-03-06T03:40:00;4.60;99.90
47382;DHT22;33128;51.580;5.170;2024-03-06T03:42:25;4.50;99.90
47382;DHT22;33128;51.580;5.170;2024-03-06T03:44:51;4.40;99.90
47382;DHT22;33128;51.580;5.170;2024-03-06T03:47:17;4.90;99.90
47382;DHT22;33128;51.580;5.170;2024-03-06T03:49:43;4.50;99.90
47382;DHT22;33128;51.580;5.170;2024-03-06T03:52:12;4.50;99.90
47382;DHT22;33128;51.580;5.170;2024-03-06T03:54:38;4.50;99.90
47382;DHT22;33128;51.580;5.170;2024-03-06T03:57:03;4.40;99.90
47382;DHT22;33128;51.580;5.170;2024-03-06T03:59:29;4.50;99.90
47382;DHT22;33128;51.580;5.170;2024-03-06T04:01:55;4.40;99.90
47382;DHT22;33128;51.580;5.170;2024-03-06T04:04:22;4.40;99.90
47382;DHT22;33128;51.580;5.170;2024-03-06T04:06:48;4.40;99.90
47382;DHT22;33128;51.580;5.170;2024-03-06T04:09:14;4.30;99.90
47382;DHT22;33128;51.580;5.170;2024-03-06T04:11:40;4.30;99.90
47382;DHT22;33128;51.580;5.170;2024-03-06T04:14:06;4.20;99.90
47382;DHT22;33128;51.580;5.170;2024-03-06T04:16:32;4.20;99.90
47382;DHT22;33128;51.580;5.170;2024-03-06T04:18:58;4.00;99.90
47382;DHT22;33128;51.580;5.170;2024-03-06T04:21:23;4.00;99.90
47382;DHT22;33128;51.580;5.170;2024-03-06T04:23:49;4.00;99.90
47382;DHT22;33128;51.580;5.170;2024-03-06T04:26:14;3.90;99.90
47382;DHT22;33128;51.580;5.170;2024-03-06T04:28:40;4.00;99.90
47382;DHT22;33128;51.580;5.170;2024-03-06T04:31:06;3.90;99.90
47382;DHT22;33128;51.580;5.170;2024-03-06T04:33:32;3.90;99.90
47382;DHT22;33128;51.580;5.170;2024-03-06T04:35:57;3.90;99.90
47382;DHT22;33128;51.580;5.170;2024-03-06T04:38:26;3.80;99.90
47382;DHT22;33128;51.580;5.170;2024-03-06T04:40:52;3.70;99.90
47382;DHT22;33128;51.580;5.170;2024-03-06T04:43:17;3.70;99.90
47382;DHT22;33128;51.580;5.170;2024-03-06T04:45:43;3.70;99.90
47382;DHT22;33128;51.580;5.170;2024-03-06T04:48:08;3.60;99.90
47382;DHT22;33128;51.580;5.170;2024-03-06T04:50:34;3.50;99.90
47382;DHT22;33128;51.580;5.170;2024-03-06T04:53:00;3.40;99.90
47382;DHT22;33128;51.580;5.170;2024-03-06T04:55:25;3.60;99.90
47382;DHT22;33128;51.580;5.170;2024-03-06T04:57:52;3.40;99.90
47382;DHT22;33128;51.580;5.170;2024-03-06T05:00:21;3.20;99.90
47382;DHT22;33128;51.580;5.170;2024-03-06T05:02:46;3.20;99.90
47382;DHT22;33128;51.580;5.170;2024-03-06T05:05:14;3.10;99.90
47382;DHT22;33128;51.580;5.170;2024-03-06T05:07:40;3.20;99.90
47382;DHT22;33128;51.580;5.170;2024-03-06T05:10:06;3.60;99.90
47382;DHT22;33128;51.580;5.170;2024-03-06T05:12:33;3.30;99.90
47382;DHT22;33128;51.580;5.170;2024-03-06T05:14:59;4.70;99.90
47382;DHT22;33128;51.580;5.170;2024-03-06T05:17:25;7.90;99.90
47382;DHT22;33128;51.580;5.170;2024-03-06T05:19:51;9.10;99.90
47382;DHT22;33128;51.580;5.170;2024-03-06T05:22:19;10.00;99.90
47382;DHT22;33128;51.580;5.170;2024-03-06T05:24:45;10.20;99.90
47382;DHT22;33128;51.580;5.170;2024-03-06T05:27:10;10.30;99.90
47382;DHT22;33128;51.580;5.170;2024-03-06T05:29:42;10.70;99.90
47382;DHT22;33128;51.580;5.170;2024-03-06T05:32:08;10.90;99.90
47382;DHT22;33128;51.580;5.170;2024-03-06T05:34:34;10.80;99.90
47382;DHT22;33128;51.580;5.170;2024-03-06T05:37:00;11.10;99.90
47382;DHT22;33128;51.580;5.170;2024-03-06T05:39:27;10.80;99.90
47382;DHT22;33128;51.580;5.170;2024-03-06T05:41:59;11.20;99.90
47382;DHT22;33128;51.580;5.170;2024-03-06T05:44:24;10.80;99.90
47382;DHT22;33128;51.580;5.170;2024-03-06T05:46:50;11.20;99.90
47382;DHT22;33128;51.580;5.170;2024-03-06T05:49:16;11.10;99.90
47382;DHT22;33128;51.580;5.170;2024-03-06T05:51:41;11.30;99.90
47382;DHT22;33128;51.580;5.170;2024-03-06T05:54:07;11.40;99.90
47382;DHT22;33128;51.580;5.170;2024-03-06T05:56:35;11.50;99.90
47382;DHT22;33128;51.580;5.170;2024-03-06T05:59:01;11.10;99.90
47382;DHT22;33128;51.580;5.170;2024-03-06T06:01:33;11.30;99.90
47382;DHT22;33128;51.580;5.170;2024-03-06T06:03:58;10.80;99.90
47382;DHT22;33128;51.580;5.170;2024-03-06T06:06:25;11.10;99.90
47382;DHT22;33128;51.580;5.170;2024-03-06T06:08:51;11.10;99.90
47382;DHT22;33128;51.580;5.170;2024-03-06T06:11:17;11.40;99.90
47382;DHT22;33128;51.580;5.170;2024-03-06T06:13:42;11.30;99.90
47382;DHT22;33128;51.580;5.170;2024-03-06T06:16:08;11.10;99.90
47382;DHT22;33128;51.580;5.170;2024-03-06T06:18:34;11.20;99.90
47382;DHT22;33128;51.580;5.170;2024-03-06T06:21:00;11.30;99.90
47382;DHT22;33128;51.580;5.170;2024-03-06T06:23:26;11.50;99.90
47382;DHT22;33128;51.580;5.170;2024-03-06T06:25:51;11.60;99.90
47382;DHT22;33128;51.580;5.170;2024-03-06T06:28:17;11.10;99.90
47382;DHT22;33128;51.580;5.170;2024-03-06T06:30:46;11.20;99.90
47382;DHT22;33128;51.580;5.170;2024-03-06T06:33:11;11.60;99.90
47382;DHT22;33128;51.580;5.170;2024-03-06T06:35:41;11.60;99.90
47382;DHT22;33128;51.580;5.170;2024-03-06T06:38:06;10.10;99.90
47382;DHT22;33128;51.580;5.170;2024-03-06T06:40:32;11.70;99.90
47382;DHT22;33128;51.580;5.170;2024-03-06T06:42:57;11.90;99.90
47382;DHT22;33128;51.580;5.170;2024-03-06T06:45:24;11.80;99.90
47382;DHT22;33128;51.580;5.170;2024-03-06T06:47:51;12.00;99.90
47382;DHT22;33128;51.580;5.170;2024-03-06T06:50:17;11.80;99.90
47382;DHT22;33128;51.580;5.170;2024-03-06T06:52:43;11.80;99.90
47382;DHT22;33128;51.580;5.170;2024-03-06T06:55:09;11.90;99.90
47382;DHT22;33128;51.580;5.170;2024-03-06T06:57:37;12.00;99.90
47382;DHT22;33128;51.580;5.170;2024-03-06T07:00:03;12.10;99.90
47382;DHT22;33128;51.580;5.170;2024-03-06T07:02:39;11.90;99.90
47382;DHT22;33128;51.580;5.170;2024-03-06T07:05:05;12.00;99.90
47382;DHT22;33128;51.580;5.170;2024-03-06T07:07:31;11.80;99.90
47382;DHT22;33128;51.580;5.170;2024-03-06T07:09:59;12.40;99.90
47382;DHT22;33128;51.580;5.170;2024-03-06T07:12:25;12.20;99.90
47382;DHT22;33128;51.580;5.170;2024-03-06T07:14:51;12.10;99.90
47382;DHT22;33128;51.580;5.170;2024-03-06T07:17:16;12.20;99.90
47382;DHT22;33128;51.580;5.170;2024-03-06T07:19:42;12.30;99.90
47382;DHT22;33128;51.580;5.170;2024-03-06T07:22:07;12.30;99.90
47382;DHT22;33128;51.580;5.170;2024-03-06T07:24:36;12.10;99.90
47382;DHT22;33128;51.580;5.170;2024-03-06T07:27:02;12.20;99.90
47382;DHT22;33128;51.580;5.170;2024-03-06T07:29:28;12.00;99.90
47382;DHT22;33128;51.580;5.170;2024-03-06T07:31:54;12.20;99.90
47382;DHT22;33128;51.580;5.170;2024-03-06T07:34:20;12.40;99.90
47382;DHT22;33128;51.580;5.170;2024-03-06T07:36:47;12.10;99.90
47382;DHT22;33128;51.580;5.170;2024-03-06T07:39:19;12.40;99.90
47382;DHT22;33128;51.580;5.170;2024-03-06T07:41:44;12.30;99.90
47382;DHT22;33128;51.580;5.170;2024-03-06T07:44:10;12.40;99.90
47382;DHT22;33128;51.580;5.170;2024-03-06T07:46:39;12.30;99.90
47382;DHT22;33128;51.580;5.170;2024-03-06T07:49:04;12.30;99.90
47382;DHT22;33128;51.580;5.170;2024-03-06T07:51:31;12.30;99.90
47382;DHT22;33128;51.580;5.170;2024-03-06T07:53:57;12.50;99.90
47382;DHT22;33128;51.580;5.170;2024-03-06T07:56:26;12.70;99.90
47382;DHT22;33128;51.580;5.170;2024-03-06T07:58:52;12.50;99.90
47382;DHT22;33128;51.580;5.170;2024-03-06T08:01:19;12.80;99.90
47382;DHT22;33128;51.580;5.170;2024-03-06T08:03:44;12.60;99.90
47382;DHT22;33128;51.580;5.170;2024-03-06T08:06:10;12.50;99.90
47382;DHT22;33128;51.580;5.170;2024-03-06T08:08:36;13.10;99.90
47382;DHT22;33128;51.580;5.170;2024-03-06T08:11:02;12.50;99.90
47382;DHT22;33128;51.580;5.170;2024-03-06T08:13:28;12.50;99.90
47382;DHT22;33128;51.580;5.170;2024-03-06T08:15:54;12.50;99.90
47382;DHT22;33128;51.580;5.170;2024-03-06T08:18:20;12.80;99.90
47382;DHT22;33128;51.580;5.170;2024-03-06T08:20:48;12.90;99.90
47382;DHT22;33128;51.580;5.170;2024-03-06T08:23:14;12.90;99.90
47382;DHT22;33128;51.580;5.170;2024-03-06T08:25:40;12.60;99.90
47382;DHT22;33128;51.580;5.170;2024-03-06T08:28:05;12.60;99.90
47382;DHT22;33128;51.580;5.170;2024-03-06T08:30:32;12.70;99.90
47382;DHT22;33128;51.580;5.170;2024-03-06T08:32:58;12.90;99.90
47382;DHT22;33128;51.580;5.170;2024-03-06T08:35:23;12.60;99.90
47382;DHT22;33128;51.580;5.170;2024-03-06T08:37:50;12.70;99.90
47382;DHT22;33128;51.580;5.170;2024-03-06T08:40:18;12.80;99.90
47382;DHT22;33128;51.580;5.170;2024-03-06T08:42:44;12.90;99.90
47382;DHT22;33128;51.580;5.170;2024-03-06T08:45:11;13.20;99.90
47382;DHT22;33128;51.580;5.170;2024-03-06T08:47:37;13.10;99.90
47382;DHT22;33128;51.580;5.170;2024-03-06T08:50:03;13.20;99.90
47382;DHT22;33128;51.580;5.170;2024-03-06T08:52:29;13.00;99.90
47382;DHT22;33128;51.580;5.170;2024-03-06T08:54:56;13.00;99.90
47382;DHT22;33128;51.580;5.170;2024-03-06T08:57:22;13.00;99.90
47382;DHT22;33128;51.580;5.170;2024-03-06T08:59:47;13.10;99.90
47382;DHT22;33128;51.580;5.170;2024-03-06T09:02:18;13.20;99.90
47382;DHT22;33128;51.580;5.170;2024-03-06T09:04:45;13.10;99.90
47382;DHT22;33128;51.580;5.170;2024-03-06T09:07:11;13.30;99.90
47382;DHT22;33128;51.580;5.170;2024-03-06T09:09:37;13.20;99.90
47382;DHT22;33128;51.580;5.170;2024-03-06T09:12:07;13.40;99.90
47382;DHT22;33128;51.580;5.170;2024-03-06T09:14:41;13.20;99.90
47382;DHT22;33128;51.580;5.170;2024-03-06T09:17:07;13.20;99.90
47382;DHT22;33128;51.580;5.170;2024-03-06T09:19:38;13.30;99.90
47382;DHT22;33128;51.580;5.170;2024-03-06T09:22:04;13.40;99.90
47382;DHT22;33128;51.580;5.170;2024-03-06T09:24:29;13.50;99.90
47382;DHT22;33128;51.580;5.170;2024-03-06T09:26:55;13.30;99.90
47382;DHT22;33128;51.580;5.170;2024-03-06T09:29:21;13.40;99.90
47382;DHT22;33128;51.580;5.170;2024-03-06T09:31:47;13.30;99.90
47382;DHT22;33128;51.580;5.170;2024-03-06T09:34:14;13.60;99.90
47382;DHT22;33128;51.580;5.170;2024-03-06T09:36:47;13.50;99.90
47382;DHT22;33128;51.580;5.170;2024-03-06T09:39:13;13.40;99.90
47382;DHT22;33128;51.580;5.170;2024-03-06T09:41:44;13.50;99.90
47382;DHT22;33128;51.580;5.170;2024-03-06T09:44:10;13.40;99.90
47382;DHT22;33128;51.580;5.170;2024-03-06T09:46:36;13.60;99.90
47382;DHT22;33128;51.580;5.170;2024-03-06T09:49:02;13.50;99.90
47382;DHT22;33128;51.580;5.170;2024-03-06T09:51:28;13.70;99.90
47382;DHT22;33128;51.580;5.170;2024-03-06T09:53:54;13.60;99.90
47382;DHT22;33128;51.580;5.170;2024-03-06T09:56:19;13.80;99.90
47382;DHT22;33128;51.580;5.170;2024-03-06T09:58:46;13.70;99.90
47382;DHT22;33128;51.580;5.170;2024-03-06T10:01:13;13.60;99.90
47382;DHT22;33128;51.580;5.170;2024-03-06T10:03:40;13.60;99.90
47382;DHT22;33128;51.580;5.170;2024-03-06T10:06:07;13.70;99.90
47382;DHT22;33128;51.580;5.170;2024-03-06T10:08:33;13.70;99.90
47382;DHT22;33128;51.580;5.170;2024-03-06T10:10:59;13.80;99.90
47382;DHT22;33128;51.580;5.170;2024-03-06T10:13:25;13.90;99.90
47382;DHT22;33128;51.580;5.170;2024-03-06T10:16:01;12.90;99.90
47382;DHT22;33128;51.580;5.170;2024-03-06T10:18:28;13.80;99.90
47382;DHT22;33128;51.580;5.170;2024-03-06T10:20:55;14.00;99.90
47382;DHT22;33128;51.580;5.170;2024-03-06T10:23:20;13.70;99.90
47382;DHT22;33128;51.580;5.170;2024-03-06T10:25:47;13.90;99.90
47382;DHT22;33128;51.580;5.170;2024-03-06T10:28:20;13.90;99.90
47382;DHT22;33128;51.580;5.170;2024-03-06T10:30:47;14.10;99.90
47382;DHT22;33128;51.580;5.170;2024-03-06T10:33:15;13.90;99.90
47382;DHT22;33128;51.580;5.170;2024-03-06T10:35:42;14.20;99.90
47382;DHT22;33128;51.580;5.170;2024-03-06T10:38:08;14.20;99.90
47382;DHT22;33128;51.580;5.170;2024-03-06T10:40:36;14.30;99.90
47382;DHT22;33128;51.580;5.170;2024-03-06T10:43:03;14.10;99.90
47382;DHT22;33128;51.580;5.170;2024-03-06T10:45:50;14.10;99.90
47382;DHT22;33128;51.580;5.170;2024-03-06T10:48:18;14.10;99.90
47382;DHT22;33128;51.580;5.170;2024-03-06T10:50:45;14.20;99.90
47382;DHT22;33128;51.580;5.170;2024-03-06T10:53:15;14.20;99.90
47382;DHT22;33128;51.580;5.170;2024-03-06T10:55:43;14.30;99.90
47382;DHT22;33128;51.580;5.170;2024-03-06T10:58:10;14.20;99.90
47382;DHT22;33128;51.580;5.170;2024-03-06T11:00:46;14.40;99.90
47382;DHT22;33128;51.580;5.170;2024-03-06T11:03:13;14.50;99.90
47382;DHT22;33128;51.580;5.170;2024-03-06T11:05:40;14.30;99.90
47382;DHT22;33128;51.580;5.170;2024-03-06T11:08:13;14.40;99.90
47382;DHT22;33128;51.580;5.170;2024-03-06T11:10:41;14.60;99.90
47382;DHT22;33128;51.580;5.170;2024-03-06T11:13:25;14.50;99.90
47382;DHT22;33128;51.580;5.170;2024-03-06T11:15:53;14.70;99.90
47382;DHT22;33128;51.580;5.170;2024-03-06T11:18:45;14.80;99.90
47382;DHT22;33128;51.580;5.170;2024-03-06T11:24:16;14.70;99.90
47382;DHT22;33128;51.580;5.170;2024-03-06T11:26:56;14.70;99.90
47382;DHT22;33128;51.580;5.170;2024-03-06T11:29:23;14.90;99.90
47382;DHT22;33128;51.580;5.170;2024-03-06T11:32:02;14.90;99.90
47382;DHT22;33128;51.580;5.170;2024-03-06T11:34:28;15.10;99.90
47382;DHT22;33128;51.580;5.170;2024-03-06T11:36:59;15.20;99.90
47382;DHT22;33128;51.580;5.170;2024-03-06T11:39:28;15.20;99.90
47382;DHT22;33128;51.580;5.170;2024-03-06T11:41:55;15.30;99.90
47382;DHT22;33128;51.580;5.170;2024-03-06T11:44:22;15.30;99.90
47382;DHT22;33128;51.580;5.170;2024-03-06T11:46:58;15.40;99.90
47382;DHT22;33128;51.580;5.170;2024-03-06T11:49:28;15.50;99.90
47382;DHT22;33128;51.580;5.170;2024-03-06T11:52:03;15.90;99.90
47382;DHT22;33128;51.580;5.170;2024-03-06T11:54:31;15.90;99.90
47382;DHT22;33128;51.580;5.170;2024-03-06T11:56:58;16.20;99.90
47382;DHT22;33128;51.580;5.170;2024-03-06T11:59:28;16.00;99.90
47382;DHT22;33128;51.580;5.170;2024-03-06T12:04:28;16.40;99.90
47382;DHT22;33128;51.580;5.170;2024-03-06T12:06:57;16.70;99.90
47382;DHT22;33128;51.580;5.170;2024-03-06T12:09:24;17.10;99.90
47382;DHT22;33128;51.580;5.170;2024-03-06T12:11:51;17.10;99.90
47382;DHT22;33128;51.580;5.170;2024-03-06T12:14:18;17.40;99.90
47382;DHT22;33128;51.580;5.170;2024-03-06T12:16:57;17.10;99.90
47382;DHT22;33128;51.580;5.170;2024-03-06T12:19:25;17.20;99.90
47382;DHT22;33128;51.580;5.170;2024-03-06T12:21:51;17.00;99.90
47382;DHT22;33128;51.580;5.170;2024-03-06T12:24:17;16.90;99.90
47382;DHT22;33128;51.580;5.170;2024-03-06T12:26:46;16.80;99.90
47382;DHT22;33128;51.580;5.170;2024-03-06T12:29:18;16.60;99.90
47382;DHT22;33128;51.580;5.170;2024-03-06T12:31:47;16.50;99.90
47382;DHT22;33128;51.580;5.170;2024-03-06T12:34:15;16.50;99.90
47382;DHT22;33128;51.580;5.170;2024-03-06T12:36:44;16.70;99.90
47382;DHT22;33128;51.580;5.170;2024-03-06T12:39:10;16.40;99.90
47382;DHT22;33128;51.580;5.170;2024-03-06T12:41:40;16.50;99.90
47382;DHT22;33128;51.580;5.170;2024-03-06T12:44:06;16.60;99.90
47382;DHT22;33128;51.580;5.170;2024-03-06T12:46:34;16.80;99.90
47382;DHT22;33128;51.580;5.170;2024-03-06T12:49:00;17.20;99.90
47382;DHT22;33128;51.580;5.170;2024-03-06T12:51:26;17.50;99.90
47382;DHT22;33128;51.580;5.170;2024-03-06T12:53:51;17.20;99.90
47382;DHT22;33128;51.580;5.170;2024-03-06T12:56:18;17.20;99.90
47382;DHT22;33128;51.580;5.170;2024-03-06T12:58:44;17.10;99.90
47382;DHT22;33128;51.580;5.170;2024-03-06T13:01:10;16.90;99.90
47382;DHT22;33128;51.580;5.170;2024-03-06T13:03:38;16.90;99.90
47382;DHT22;33128;51.580;5.170;2024-03-06T13:06:04;17.10;99.90
47382;DHT22;33128;51.580;5.170;2024-03-06T13:08:31;17.10;99.90
47382;DHT22;33128;51.580;5.170;2024-03-06T13:10:57;16.90;99.90
47382;DHT22;33128;51.580;5.170;2024-03-06T13:13:26;16.90;99.90
47382;DHT22;33128;51.580;5.170;2024-03-06T13:15:54;17.10;99.90
47382;DHT22;33128;51.580;5.170;2024-03-06T13:18:20;17.00;99.90
47382;DHT22;33128;51.580;5.170;2024-03-06T13:20:45;17.00;99.90
47382;DHT22;33128;51.580;5.170;2024-03-06T13:23:12;17.00;99.90
47382;DHT22;33128;51.580;5.170;2024-03-06T13:25:37;17.00;99.90
47382;DHT22;33128;51.580;5.170;2024-03-06T13:28:04;17.10;99.90
47382;DHT22;33128;51.580;5.170;2024-03-06T13:30:30;16.90;99.90
47382;DHT22;33128;51.580;5.170;2024-03-06T13:32:56;17.00;99.90
47382;DHT22;33128;51.580;5.170;2024-03-06T13:35:22;16.90;99.90
47382;DHT22;33128;51.580;5.170;2024-03-06T13:37:47;16.90;99.90
47382;DHT22;33128;51.580;5.170;2024-03-06T13:40:14;17.00;99.90
47382;DHT22;33128;51.580;5.170;2024-03-06T13:42:41;17.00;99.90
47382;DHT22;33128;51.580;5.170;2024-03-06T13:45:07;17.10;99.90
47382;DHT22;33128;51.580;5.170;2024-03-06T13:47:37;16.80;99.90
47382;DHT22;33128;51.580;5.170;2024-03-06T13:50:05;16.70;99.90
47382;DHT22;33128;51.580;5.170;2024-03-06T13:52:33;16.80;99.90
47382;DHT22;33128;51.580;5.170;2024-03-06T13:54:59;16.80;99.90
47382;DHT22;33128;51.580;5.170;2024-03-06T13:57:28;16.80;99.90
47382;DHT22;33128;51.580;5.170;2024-03-06T13:59:54;16.80;99.90
47382;DHT22;33128;51.580;5.170;2024-03-06T14:02:19;16.90;99.90
47382;DHT22;33128;51.580;5.170;2024-03-06T14:04:46;17.00;99.90
47382;DHT22;33128;51.580;5.170;2024-03-06T14:07:11;17.00;99.90
47382;DHT22;33128;51.580;5.170;2024-03-06T14:09:39;17.00;99.90
47382;DHT22;33128;51.580;5.170;2024-03-06T14:12:06;17.00;99.90
47382;DHT22;33128;51.580;5.170;2024-03-06T14:14:32;16.90;99.90
47382;DHT22;33128;51.580;5.170;2024-03-06T14:16:58;17.10;99.90
47382;DHT22;33128;51.580;5.170;2024-03-06T14:19:23;16.80;99.90
47382;DHT22;33128;51.580;5.170;2024-03-06T14:21:49;17.10;99.90
47382;DHT22;33128;51.580;5.170;2024-03-06T14:24:14;16.90;99.90
47382;DHT22;33128;51.580;5.170;2024-03-06T14:26:43;17.10;99.90
47382;DHT22;33128;51.580;5.170;2024-03-06T14:29:09;16.90;99.90
47382;DHT22;33128;51.580;5.170;2024-03-06T14:31:35;16.90;99.90
47382;DHT22;33128;51.580;5.170;2024-03-06T14:34:00;17.20;99.90
47382;DHT22;33128;51.580;5.170;2024-03-06T14:36:26;16.90;99.90
47382;DHT22;33128;51.580;5.170;2024-03-06T14:38:52;17.20;99.90
47382;DHT22;33128;51.580;5.170;2024-03-06T14:41:21;17.20;99.90
47382;DHT22;33128;51.580;5.170;2024-03-06T14:43:47;17.20;99.90
47382;DHT22;33128;51.580;5.170;2024-03-06T14:46:13;17.20;99.90
47382;DHT22;33128;51.580;5.170;2024-03-06T14:48:42;17.20;99.90
47382;DHT22;33128;51.580;5.170;2024-03-06T14:51:07;16.90;99.90
47382;DHT22;33128;51.580;5.170;2024-03-06T14:53:34;17.10;99.90
47382;DHT22;33128;51.580;5.170;2024-03-06T14:55:59;17.10;99.90
47382;DHT22;33128;51.580;5.170;2024-03-06T14:58:26;17.10;99.90
47382;DHT22;33128;51.580;5.170;2024-03-06T15:00:51;17.10;99.90
47382;DHT22;33128;51.580;5.170;2024-03-06T15:03:17;17.00;99.90
47382;DHT22;33128;51.580;5.170;2024-03-06T15:05:43;17.10;99.90
47382;DHT22;33128;51.580;5.170;2024-03-06T15:08:10;16.90;99.90
47382;DHT22;33128;51.580;5.170;2024-03-06T15:10:36;17.00;99.90
47382;DHT22;33128;51.580;5.170;2024-03-06T15:13:01;17.10;99.90
47382;DHT22;33128;51.580;5.170;2024-03-06T15:15:30;17.00;99.90
47382;DHT22;33128;51.580;5.170;2024-03-06T15:17:57;17.00;99.90
47382;DHT22;33128;51.580;5.170;2024-03-06T15:20:22;16.80;99.90
47382;DHT22;33128;51.580;5.170;2024-03-06T15:22:48;17.00;99.90
47382;DHT22;33128;51.580;5.170;2024-03-06T15:25:13;16.90;99.90
47382;DHT22;33128;51.580;5.170;2024-03-06T15:27:40;16.90;99.90
47382;DHT22;33128;51.580;5.170;2024-03-06T15:30:07;17.00;99.90
47382;DHT22;33128;51.580;5.170;2024-03-06T15:32:34;16.60;99.90
47382;DHT22;33128;51.580;5.170;2024-03-06T15:35:00;16.80;99.90
47382;DHT22;33128;51.580;5.170;2024-03-06T15:37:25;16.60;99.90
47382;DHT22;33128;51.580;5.170;2024-03-06T15:39:54;16.70;99.90